createdAt,value
2024-05-09T00:00:04.931Z,9.00
2024-05-09T00:03:08.376Z,10.93
2024-05-09T00:06:11.056Z,9.82
2024-05-09T00:09:12.499Z,9.85
2024-05-09T00:12:14.139Z,8.10
2024-05-09T00:15:15.660Z,9.30
2024-05-09T00:18:17.299Z,11.25
2024-05-09T00:21:18.797Z,8.98
2024-05-09T00:24:20.212Z,10.23
2024-05-09T00:27:22.650Z,8.27
2024-05-09T00:30:31.461Z,8.20
2024-05-09T00:33:36.626Z,11.07
2024-05-09T00:36:38.131Z,11.15
2024-05-09T00:39:39.529Z,9.80
2024-05-09T00:42:40.972Z,9.25
2024-05-09T00:45:42.917Z,8.70
2024-05-09T00:48:44.615Z,9.85
2024-05-09T00:51:46.122Z,9.30
2024-05-09T00:54:47.784Z,10.23
2024-05-09T00:57:49.448Z,11.20
2024-05-09T01:00:51.081Z,13.02
2024-05-09T01:03:52.737Z,9.40
2024-05-09T01:06:54.230Z,9.05
2024-05-09T01:09:55.606Z,11.27
2024-05-09T01:12:57.019Z,8.48
2024-05-09T01:15:58.585Z,7.85
2024-05-09T01:19:02.618Z,7.80
2024-05-09T01:22:04.567Z,9.57
2024-05-09T01:25:06.454Z,8.25
2024-05-09T01:28:07.893Z,9.68
2024-05-09T01:31:15.202Z,9.40
2024-05-09T01:34:16.661Z,7.45
2024-05-09T01:37:18.150Z,8.10
2024-05-09T01:40:25.319Z,7.05
2024-05-09T01:43:35.314Z,7.40
2024-05-09T01:46:36.702Z,7.88
2024-05-09T01:49:38.243Z,8.98
2024-05-09T01:52:39.751Z,7.32
2024-05-09T01:55:41.232Z,9.40
2024-05-09T01:58:42.681Z,8.10
2024-05-09T02:01:56.298Z,8.43
2024-05-09T02:04:59.252Z,9.77
2024-05-09T02:08:00.769Z,8.02
2024-05-09T02:11:02.306Z,7.47
2024-05-09T02:14:04.753Z,7.90
2024-05-09T02:17:06.246Z,7.82
2024-05-09T02:20:13.090Z,9.50
2024-05-09T02:23:18.269Z,7.38
2024-05-09T02:26:19.798Z,10.27
2024-05-09T02:29:21.416Z,8.10
2024-05-09T02:32:22.932Z,9.13
2024-05-09T02:35:24.435Z,8.98
2024-05-09T02:38:25.924Z,10.27
2024-05-09T02:41:27.412Z,7.82
2024-05-09T02:44:28.959Z,7.15
2024-05-09T02:47:30.681Z,7.65
2024-05-09T02:50:37.921Z,8.70
2024-05-09T02:53:41.227Z,9.98
2024-05-09T02:56:42.689Z,11.55
2024-05-09T02:59:44.099Z,8.25
2024-05-09T03:02:45.650Z,9.35
2024-05-09T03:05:47.309Z,10.05
2024-05-09T03:08:48.781Z,9.95
2024-05-09T03:11:50.410Z,11.25
2024-05-09T03:14:52.002Z,13.32
2024-05-09T03:17:53.591Z,11.40
2024-05-09T03:20:55.046Z,12.50
2024-05-09T03:23:56.522Z,11.77
2024-05-09T03:26:57.905Z,12.52
2024-05-09T03:29:59.318Z,11.68
2024-05-09T03:33:00.930Z,13.63
2024-05-09T03:36:09.097Z,16.15
2024-05-09T03:39:12.134Z,16.08
2024-05-09T03:42:13.643Z,15.00
2024-05-09T03:45:15.150Z,18.27
2024-05-09T03:48:16.850Z,16.10
2024-05-09T03:51:18.598Z,16.73
2024-05-09T03:54:20.003Z,17.73
2024-05-09T03:57:21.383Z,16.70
2024-05-09T04:00:31.084Z,17.52
2024-05-09T04:03:42.046Z,15.60
2024-05-09T04:09:44.873Z,16.73
2024-05-09T04:12:46.252Z,16.83
2024-05-09T04:15:47.688Z,17.73
2024-05-09T04:18:52.007Z,17.00
2024-05-09T04:21:53.579Z,18.73
2024-05-09T04:24:54.978Z,18.77
2024-05-09T04:27:56.395Z,19.38
2024-05-09T04:30:57.784Z,22.30
2024-05-09T04:33:59.338Z,18.55
2024-05-09T04:37:01.190Z,17.45
2024-05-09T04:40:03.109Z,21.20
2024-05-09T04:43:05.094Z,19.48
2024-05-09T04:46:06.580Z,18.50
2024-05-09T04:49:08.181Z,21.80
2024-05-09T04:52:09.624Z,17.63
2024-05-09T04:55:11.044Z,18.27
2024-05-09T04:58:12.573Z,18.50
2024-05-09T05:01:15.032Z,20.38
2024-05-09T05:04:16.608Z,16.90
2024-05-09T05:07:20.977Z,25.38
2024-05-09T05:10:29.523Z,19.02
2024-05-09T05:13:38.585Z,19.27
2024-05-09T05:16:41.392Z,18.58
2024-05-09T05:19:42.852Z,16.33
2024-05-09T05:22:44.345Z,16.58
2024-05-09T05:25:50.543Z,16.50
2024-05-09T05:28:52.097Z,18.15
2024-05-09T05:31:53.608Z,16.55
2024-05-09T05:34:55.070Z,16.13
2024-05-09T05:37:56.618Z,15.88
2024-05-09T05:40:58.187Z,13.98
2024-05-09T05:43:59.644Z,14.10
2024-05-09T05:47:01.087Z,15.30
2024-05-09T05:50:03.789Z,15.57
2024-05-09T05:53:07.681Z,15.85
2024-05-09T05:56:09.954Z,13.20
2024-05-09T05:59:13.393Z,13.38
2024-05-09T06:02:16.722Z,12.02
2024-05-09T06:05:18.396Z,14.40
2024-05-09T06:08:19.940Z,12.55
2024-05-09T06:11:21.429Z,11.00
2024-05-09T06:14:23.016Z,11.50
2024-05-09T06:17:24.806Z,12.02
2024-05-09T06:20:34.478Z,12.65
2024-05-09T06:23:45.145Z,11.10
2024-05-09T06:26:46.625Z,11.55
2024-05-09T06:29:48.068Z,10.27
2024-05-09T06:32:49.577Z,10.43
2024-05-09T06:35:51.099Z,11.32
2024-05-09T06:38:52.532Z,11.95
2024-05-09T06:41:53.997Z,9.55
2024-05-09T06:44:55.723Z,9.50
2024-05-09T06:47:57.283Z,9.63
2024-05-09T06:50:58.842Z,9.50
2024-05-09T06:54:00.251Z,8.90
2024-05-09T06:57:02.002Z,9.27
2024-05-09T07:00:03.899Z,9.25
2024-05-09T07:03:13.986Z,8.57
2024-05-09T07:06:17.878Z,9.45
2024-05-09T07:09:19.415Z,11.02
2024-05-09T07:12:20.945Z,8.05
2024-05-09T07:15:22.423Z,12.15
2024-05-09T07:18:24.011Z,7.45
2024-05-09T07:21:25.691Z,9.48
2024-05-09T07:24:27.151Z,8.65
2024-05-09T07:27:28.550Z,7.25
2024-05-09T07:30:33.409Z,6.25
2024-05-09T07:33:36.056Z,6.43
2024-05-09T07:36:37.617Z,7.03
2024-05-09T07:39:39.540Z,6.28
2024-05-09T07:42:40.991Z,7.45
2024-05-09T07:45:50.794Z,7.22
2024-05-09T07:50:34.883Z,8.90
2024-05-09T07:53:30.004Z,6.57
2024-05-09T07:55:39.200Z,7.93
2024-05-09T07:58:42.846Z,6.10
2024-05-09T08:01:44.397Z,6.85
2024-05-09T08:04:45.924Z,6.80
2024-05-09T08:07:47.559Z,4.90
2024-05-09T08:10:49.000Z,5.72
2024-05-09T08:13:51.619Z,5.55
2024-05-09T08:16:53.141Z,8.98
2024-05-09T08:19:56.095Z,5.35
2024-05-09T08:22:57.504Z,5.30
2024-05-09T08:25:58.984Z,5.25
2024-05-09T08:29:00.455Z,4.03
2024-05-09T08:32:02.147Z,4.72
2024-05-09T08:35:03.699Z,3.42
2024-05-09T08:38:06.066Z,4.30
2024-05-09T08:41:07.607Z,5.03
2024-05-09T08:44:09.589Z,4.45
2024-05-09T08:47:11.105Z,3.90
2024-05-09T08:50:24.169Z,5.07
2024-05-09T08:53:33.315Z,5.85
2024-05-09T08:56:35.129Z,4.68
2024-05-09T08:59:39.568Z,5.53
2024-05-09T09:02:41.295Z,4.57
2024-05-09T09:05:58.340Z,2.95
2024-05-09T09:09:00.151Z,3.85
2024-05-09T09:12:01.666Z,4.78
2024-05-09T09:15:03.151Z,3.35
2024-05-09T09:18:05.249Z,3.05
2024-05-09T09:21:09.935Z,2.88
2024-05-09T09:24:11.438Z,3.33
2024-05-09T09:27:15.703Z,5.22
2024-05-09T09:30:30.864Z,4.00
2024-05-09T09:33:43.065Z,5.72
2024-05-09T09:36:44.674Z,3.28
2024-05-09T09:39:49.086Z,3.47
2024-05-09T09:42:55.557Z,4.18
2024-05-09T09:45:59.639Z,3.53
2024-05-09T09:49:01.493Z,3.17
2024-05-09T09:52:03.025Z,3.67
2024-05-09T09:55:05.458Z,3.47
2024-05-09T09:58:09.661Z,3.72
2024-05-09T10:01:13.422Z,3.90
2024-05-09T10:04:16.312Z,3.67
2024-05-09T10:07:19.381Z,3.13
2024-05-09T10:10:31.423Z,3.83
2024-05-09T10:13:37.073Z,3.97
2024-05-09T10:16:44.579Z,4.88
2024-05-09T10:19:46.419Z,3.67
2024-05-09T10:22:50.752Z,4.85
2024-05-09T10:25:59.035Z,3.30
2024-05-09T10:29:03.383Z,3.75
2024-05-09T10:32:05.306Z,3.53
2024-05-09T10:35:14.980Z,3.08
2024-05-09T10:38:17.486Z,3.60
2024-05-09T10:41:19.813Z,3.85
2024-05-09T10:44:21.320Z,3.58
2024-05-09T10:47:23.081Z,4.10
2024-05-09T10:50:28.689Z,3.42
2024-05-09T10:53:43.289Z,3.38
2024-05-09T10:56:44.838Z,3.10
2024-05-09T10:59:49.036Z,4.18
2024-05-09T11:02:50.606Z,3.47
2024-05-09T11:05:52.884Z,5.22
2024-05-09T11:08:55.289Z,3.95
2024-05-09T11:11:56.802Z,3.30
2024-05-09T11:14:58.345Z,3.90
2024-05-09T11:17:59.800Z,3.40
2024-05-09T11:21:01.472Z,3.50
2024-05-09T11:24:03.035Z,3.22
2024-05-09T11:27:05.601Z,3.83
2024-05-09T11:30:24.178Z,4.07
2024-05-09T11:33:31.476Z,3.40
2024-05-09T11:36:33.110Z,4.07
2024-05-09T11:39:34.769Z,4.43
2024-05-09T11:42:36.219Z,3.45
2024-05-09T11:45:37.728Z,3.50
2024-05-09T11:48:39.561Z,3.28
2024-05-09T11:51:41.287Z,3.00
2024-05-09T11:54:42.791Z,4.05
2024-05-09T11:57:44.409Z,3.10
2024-05-09T12:00:46.247Z,4.18
2024-05-09T12:03:49.617Z,3.15
2024-05-09T12:06:51.227Z,3.53
2024-05-09T12:09:52.746Z,4.63
2024-05-09T12:12:54.254Z,3.70
2024-05-09T12:15:55.674Z,3.30
2024-05-09T12:18:57.493Z,3.22
2024-05-09T12:21:59.089Z,3.55
2024-05-09T12:25:00.518Z,3.65
2024-05-09T12:28:02.080Z,3.10
2024-05-09T12:31:03.660Z,4.80
2024-05-09T12:34:05.241Z,4.03
2024-05-09T12:37:06.733Z,4.20
2024-05-09T12:40:15.831Z,3.58
2024-05-09T12:43:20.181Z,3.20
2024-05-09T12:46:23.140Z,3.53
2024-05-09T12:49:24.879Z,3.50
2024-05-09T12:52:26.443Z,4.40
2024-05-09T12:55:28.578Z,3.15
2024-05-09T12:58:31.640Z,3.47
2024-05-09T13:01:33.371Z,3.72
2024-05-09T13:04:35.173Z,3.90
2024-05-09T13:07:36.795Z,2.70
2024-05-09T13:10:38.221Z,8.57
2024-05-09T13:13:39.745Z,3.97
2024-05-09T13:16:41.237Z,3.38
2024-05-09T13:19:42.713Z,4.75
2024-05-09T13:22:45.397Z,3.72
2024-05-09T13:25:46.853Z,5.68
2024-05-09T13:28:48.351Z,3.67
2024-05-09T13:31:49.828Z,3.80
2024-05-09T13:34:51.292Z,4.35
2024-05-09T13:37:52.722Z,3.42
2024-05-09T13:40:54.454Z,3.28
2024-05-09T13:43:55.988Z,3.50
2024-05-09T13:46:57.487Z,2.90
2024-05-09T13:49:58.979Z,3.75
2024-05-09T13:53:00.445Z,3.97
2024-05-09T13:56:02.006Z,3.38
2024-05-09T13:59:04.320Z,4.18
2024-05-09T14:02:06.265Z,4.47
2024-05-09T14:05:07.969Z,5.15
2024-05-09T14:08:09.813Z,3.33
2024-05-09T14:11:11.521Z,5.70
2024-05-09T14:14:12.964Z,3.55
2024-05-09T14:17:14.493Z,3.88
2024-05-09T14:20:23.844Z,3.85
2024-05-09T14:23:32.014Z,3.92
2024-05-09T14:26:33.469Z,2.40
2024-05-09T14:29:35.376Z,3.35
2024-05-09T14:32:36.874Z,4.38
2024-05-09T14:35:39.048Z,3.47
2024-05-09T14:38:40.808Z,3.50
2024-05-09T14:41:42.249Z,3.00
2024-05-09T14:44:43.654Z,3.05
2024-05-09T14:47:45.191Z,3.83
2024-05-09T14:50:46.736Z,3.90
2024-05-09T14:53:48.138Z,3.03
2024-05-09T14:56:52.584Z,5.05
2024-05-09T14:59:54.011Z,3.15
2024-05-09T15:02:55.496Z,2.97
2024-05-09T15:05:57.158Z,4.13
2024-05-09T15:08:58.968Z,4.05
2024-05-09T15:12:00.377Z,3.72
2024-05-09T15:15:01.828Z,3.10
2024-05-09T15:18:06.898Z,3.97
2024-05-09T15:21:08.528Z,2.75
2024-05-09T15:24:10.115Z,3.55
2024-05-09T15:27:11.923Z,4.43
2024-05-09T15:30:15.508Z,3.83
2024-05-09T15:33:19.595Z,4.10
2024-05-09T15:36:21.050Z,3.67
2024-05-09T15:39:24.447Z,3.05
2024-05-09T15:42:25.961Z,3.78
2024-05-09T15:45:28.948Z,3.95
2024-05-09T15:51:32.069Z,4.60
2024-05-09T15:54:33.478Z,4.80
2024-05-09T15:57:37.564Z,3.00
2024-05-09T16:00:42.269Z,7.38
2024-05-09T16:03:45.401Z,21.27
2024-05-09T16:06:48.062Z,18.95
2024-05-09T16:09:49.618Z,4.20
2024-05-09T16:12:51.082Z,3.20
2024-05-09T16:15:52.812Z,3.30
2024-05-09T16:18:54.581Z,4.05
2024-05-09T16:21:58.136Z,4.00
2024-05-09T16:24:59.708Z,4.53
2024-05-09T16:28:01.610Z,3.22
2024-05-09T16:31:03.318Z,3.30
2024-05-09T16:34:05.007Z,3.88
2024-05-09T16:37:10.210Z,3.33
2024-05-09T16:40:21.772Z,4.00
2024-05-09T16:43:31.185Z,3.40
2024-05-09T16:46:32.712Z,4.50
2024-05-09T16:49:34.234Z,3.10
2024-05-09T16:52:35.642Z,3.85
2024-05-09T16:55:37.203Z,3.70
2024-05-09T16:58:38.991Z,4.10
2024-05-09T17:01:40.501Z,3.45
2024-05-09T17:04:42.789Z,5.20
2024-05-09T17:07:46.065Z,3.67
2024-05-09T17:10:50.817Z,4.75
2024-05-09T17:13:52.471Z,4.82
2024-05-09T17:16:53.912Z,3.72
2024-05-09T17:19:55.353Z,3.42
2024-05-09T17:22:56.760Z,4.20
2024-05-09T17:25:58.178Z,4.07
2024-05-09T17:29:00.806Z,3.30
2024-05-09T17:32:02.295Z,3.30
2024-05-09T17:35:03.857Z,4.85
2024-05-09T17:38:06.337Z,4.13
2024-05-09T17:41:07.955Z,3.60
2024-05-09T17:44:09.893Z,4.82
2024-05-09T17:47:11.329Z,3.80
2024-05-09T17:50:20.928Z,3.65
2024-05-09T17:53:28.281Z,3.80
2024-05-09T17:56:29.707Z,4.60
2024-05-09T17:59:31.119Z,4.43
2024-05-09T18:02:33.187Z,5.10
2024-05-09T18:05:35.565Z,5.32
2024-05-09T18:08:37.883Z,5.28
2024-05-09T18:11:40.474Z,5.03
2024-05-09T18:14:41.870Z,3.05
2024-05-09T18:17:43.636Z,3.53
2024-05-09T18:20:47.722Z,3.60
2024-05-09T18:23:51.942Z,3.88
2024-05-09T18:26:53.730Z,4.28
2024-05-09T18:29:55.139Z,7.10
2024-05-09T18:32:56.634Z,5.53
2024-05-09T18:35:58.097Z,4.75
2024-05-09T18:38:59.822Z,3.75
2024-05-09T18:42:01.890Z,6.50
2024-05-09T18:45:05.156Z,6.10
2024-05-09T18:48:10.791Z,3.63
2024-05-09T18:51:12.288Z,4.13
2024-05-09T18:54:13.924Z,4.07
2024-05-09T18:57:15.331Z,4.70
2024-05-09T19:00:30.723Z,3.83
2024-05-09T19:03:38.718Z,5.45
2024-05-09T19:06:40.652Z,4.78
2024-05-09T19:09:42.083Z,3.75
2024-05-09T19:12:43.504Z,4.47
2024-05-09T19:15:45.270Z,4.68
2024-05-09T19:18:46.990Z,6.68
2024-05-09T19:21:48.508Z,7.15
2024-05-09T19:24:50.173Z,5.05
2024-05-09T19:27:54.705Z,7.20
2024-05-09T19:30:56.241Z,8.40
2024-05-09T19:33:57.721Z,5.80
2024-05-09T19:37:01.326Z,4.68
2024-05-09T19:40:03.511Z,5.82
2024-05-09T19:43:07.046Z,5.28
2024-05-09T19:46:09.743Z,5.68
2024-05-09T19:49:11.384Z,6.15
2024-05-09T19:52:13.037Z,3.58
2024-05-09T19:55:14.675Z,4.28
2024-05-09T19:58:16.379Z,4.68
2024-05-09T20:01:17.988Z,4.93
2024-05-09T20:04:19.624Z,5.22
2024-05-09T20:07:21.169Z,4.93
2024-05-09T20:10:26.230Z,4.63
2024-05-09T20:13:31.250Z,6.55
2024-05-09T20:16:32.757Z,4.72
2024-05-09T20:19:34.524Z,4.70
2024-05-09T20:22:36.104Z,4.60
2024-05-09T20:25:37.685Z,4.97
2024-05-09T20:28:39.175Z,5.35
2024-05-09T20:31:41.248Z,5.85
2024-05-09T20:34:42.722Z,5.90
2024-05-09T20:37:44.150Z,6.78
2024-05-09T20:40:46.136Z,8.95
2024-05-09T20:43:47.690Z,5.28
2024-05-09T20:46:49.091Z,4.40
2024-05-09T20:49:52.268Z,4.25
2024-05-09T20:52:53.707Z,6.40
2024-05-09T20:55:55.115Z,7.32
2024-05-09T20:58:57.192Z,5.72
2024-05-09T21:01:58.678Z,6.82
2024-05-09T21:05:00.419Z,4.72
2024-05-09T21:08:02.031Z,7.93
2024-05-09T21:11:03.593Z,6.55
2024-05-09T21:14:05.017Z,5.82
2024-05-09T21:17:06.467Z,5.93
2024-05-09T21:20:14.186Z,5.68
2024-05-09T21:23:18.569Z,5.97
2024-05-09T21:26:22.977Z,7.15
2024-05-09T21:29:24.476Z,4.82
2024-05-09T21:32:26.015Z,7.00
2024-05-09T21:35:27.476Z,5.78
2024-05-09T21:38:28.878Z,5.22
2024-05-09T21:41:30.321Z,8.52
2024-05-09T21:44:31.757Z,6.45
2024-05-09T21:47:34.582Z,5.20
2024-05-09T21:50:40.516Z,5.93
2024-05-09T21:53:43.627Z,6.63
2024-05-09T21:56:45.030Z,5.70
2024-05-09T21:59:47.429Z,7.13
2024-05-09T22:02:48.879Z,9.30
2024-05-09T22:05:50.347Z,5.95
2024-05-09T22:08:51.727Z,6.43
2024-05-09T22:11:54.500Z,6.28
2024-05-09T22:14:55.978Z,5.70
2024-05-09T22:17:57.768Z,6.68
2024-05-09T22:20:59.413Z,5.57
2024-05-09T22:24:00.816Z,6.03
2024-05-09T22:27:02.220Z,5.25
2024-05-09T22:30:07.176Z,5.40
2024-05-09T22:33:13.246Z,5.47
2024-05-09T22:36:14.813Z,5.32
2024-05-09T22:39:16.810Z,6.15
2024-05-09T22:42:18.288Z,7.38
2024-05-09T22:45:19.727Z,6.10
2024-05-09T22:48:21.465Z,6.43
2024-05-09T22:51:22.976Z,6.45
2024-05-09T22:54:24.358Z,6.85
2024-05-09T22:57:25.767Z,6.35
2024-05-09T23:00:31.674Z,5.38
2024-05-09T23:03:34.653Z,5.75
2024-05-09T23:06:39.832Z,6.13
2024-05-09T23:09:44.336Z,4.97
2024-05-09T23:12:45.804Z,4.35
2024-05-09T23:15:47.259Z,5.45
2024-05-09T23:18:48.909Z,5.45
2024-05-09T23:21:50.383Z,7.38
2024-05-09T23:24:51.846Z,5.68
2024-05-09T23:27:53.467Z,5.95
2024-05-09T23:30:54.954Z,6.13
2024-05-09T23:33:56.614Z,6.15
2024-05-09T23:36:58.285Z,6.80
2024-05-09T23:39:59.766Z,5.93
2024-05-09T23:43:01.228Z,6.32
2024-05-09T23:46:02.811Z,5.82
2024-05-09T23:49:04.445Z,6.45
2024-05-09T23:52:06.004Z,6.55
2024-05-09T23:55:07.585Z,5.78
2024-05-09T23:58:09.405Z,5.80
